Time;durP1;ratioP1;P1;durP2;ratioP2;P2;SDS_P1;SDS_P2;PMS_P1;PMS_P2;Temp;Humidity;BMP_temperature;BMP_pressure;BME280_temperature;BME280_humidity;BME280_pressure;Samples;Min_cycle;Max_cycle;Signal;HPM_P1;HPM_P2
2023/08/12 00:01:31;;;;;;;8.18;3.10;;;;;;;-145.69;66.90;51775.06;5112421;28;20193;-80
2023/08/12 00:03:58;;;;;;;4.50;3.10;;;;;;;-145.69;65.86;51751.31;5122427;28;20239;-80
2023/08/12 00:06:24;;;;;;;4.40;2.92;;;;;;;-145.69;66.18;51747.34;5133180;28;20709;-82
2023/08/12 00:08:51;;;;;;;5.63;3.10;;;;;;;-145.69;67.07;51771.09;5133194;28;20201;-82
2023/08/12 00:11:17;;;;;;;4.82;3.40;;;;;;;-145.69;67.31;51729.53;5106597;28;20196;-82
2023/08/12 00:13:44;;;;;;;6.22;2.85;;;;;;;-145.69;67.64;51755.25;5114393;28;20229;-83
2023/08/12 00:16:12;;;;;;;9.20;3.10;;;;;;;-145.69;68.18;51784.97;5116844;28;20682;-82
2023/08/12 00:18:38;;;;;;;4.28;3.00;;;;;;;-145.69;68.26;51751.31;5116616;28;20197;-82
2023/08/12 00:21:09;;;;;;;5.50;3.65;;;;;;;-145.69;68.65;51727.53;5116150;28;20196;-83
2023/08/12 00:23:40;;;;;;;6.72;3.33;;;;;;;-145.69;68.69;51747.34;5098038;28;20193;-83
2023/08/12 00:26:06;;;;;;;4.03;3.03;;;;;;;-145.69;69.14;51781.00;5116391;28;20229;-83
2023/08/12 00:28:33;;;;;;;4.93;2.75;;;;;;;-145.69;68.81;51786.94;5116599;28;20201;-82
2023/08/12 00:31:00;;;;;;;3.88;2.90;;;;;;;-145.69;70.23;51781.00;5116455;28;20205;-82
2023/08/12 00:33:28;;;;;;;5.80;3.13;;;;;;;-145.69;69.26;51741.41;5116143;28;20201;-84
2023/08/12 00:35:54;;;;;;;8.50;3.20;;;;;;;-145.69;69.42;51773.09;5116428;28;20560;-83
2023/08/12 00:38:21;;;;;;;14.98;3.58;;;;;;;-145.69;69.29;51796.84;5116048;28;20652;-82
2023/08/12 00:40:48;;;;;;;4.97;3.05;;;;;;;-145.69;68.97;51739.44;5100910;28;20239;-82
2023/08/12 00:43:14;;;;;;;4.55;3.35;;;;;;;-145.69;69.07;51779.03;5115951;28;20194;-82
2023/08/12 00:45:42;;;;;;;4.32;2.88;;;;;;;-145.69;69.27;51769.13;5115056;28;20224;-82
2023/08/12 00:48:09;;;;;;;4.88;3.47;;;;;;;-145.69;69.46;51767.16;5116051;28;20300;-83
2023/08/12 00:50:37;;;;;;;8.93;3.72;;;;;;;-145.69;69.29;51765.16;5114680;28;20197;-82
2023/08/12 00:53:05;;;;;;;4.95;3.03;;;;;;;-145.69;69.95;51771.09;5115634;28;20216;-82
2023/08/12 00:55:32;;;;;;;4.55;3.13;;;;;;;-145.69;69.98;51765.16;5115937;28;20724;-83
2023/08/12 00:57:59;;;;;;;4.95;3.47;;;;;;;-145.69;70.94;51755.25;5115821;28;20254;-82
2023/08/12 01:00:26;;;;;;;4.63;2.90;;;;;;;-145.69;70.47;51755.25;5116130;28;20549;-83
2023/08/12 01:02:53;;;;;;;4.32;3.03;;;;;;;-145.69;70.38;51753.28;5115889;28;20205;-83
2023/08/12 01:05:19;;;;;;;6.68;3.53;;;;;;;-145.69;69.93;51783.00;5115613;28;20231;-83
2023/08/12 01:07:48;;;;;;;7.65;3.00;;;;;;;-145.69;70.06;51790.91;5111993;28;20237;-84
2023/08/12 01:10:16;;;;;;;4.85;3.35;;;;;;;-145.69;70.17;51771.09;5109472;28;20208;-82
2023/08/12 01:12:48;;;;;;;3.95;3.08;;;;;;;-145.69;70.06;51769.13;5115216;28;20254;-83
2023/08/12 01:15:20;;;;;;;4.00;2.80;;;;;;;-145.69;70.29;51773.09;5110245;27;20201;-82
2023/08/12 01:17:51;;;;;;;5.32;3.42;;;;;;;-145.69;71.06;51790.91;5097303;28;20224;-83
2023/08/12 01:20:24;;;;;;;6.25;3.10;;;;;;;-145.69;70.48;51783.00;5115520;28;20602;-82
2023/08/12 01:22:56;;;;;;;4.28;3.15;;;;;;;-145.69;70.36;51749.31;5115639;28;20197;-83
2023/08/12 01:25:24;;;;;;;10.68;3.13;;;;;;;-145.69;70.25;51786.94;5114247;28;20243;-82
2023/08/12 01:27:51;;;;;;;5.03;2.95;;;;;;;-145.69;70.19;51775.06;5115169;28;20201;-83
2023/08/12 01:30:19;;;;;;;4.65;3.20;;;;;;;-145.69;70.05;51796.84;5115200;28;20201;-82
2023/08/12 01:32:54;;;;;;;6.75;3.20;;;;;;;-145.69;69.94;51775.06;5097086;28;20202;-82
2023/08/12 01:35:25;;;;;;;4.72;3.30;;;;;;;-145.69;69.69;51767.16;5114966;28;20394;-83
2023/08/12 01:37:53;;;;;;;3.83;2.88;;;;;;;-145.69;69.85;51763.19;5115076;28;20204;-83
2023/08/12 01:40:20;;;;;;;3.97;2.95;;;;;;;-145.69;69.17;51759.22;5096599;28;20270;-83
2023/08/12 01:42:49;;;;;;;4.03;2.80;;;;;;;-145.69;68.24;51779.03;5114663;28;20212;-82
2023/08/12 01:45:16;;;;;;;4.95;3.10;;;;;;;-145.69;67.65;51763.19;5096855;28;20221;-82
2023/08/12 01:47:44;;;;;;;4.38;2.70;;;;;;;-145.69;67.70;51747.34;5114025;28;20201;-82
2023/08/12 01:50:11;;;;;;;4.88;3.00;;;;;;;-145.69;67.35;51769.13;5114350;28;20221;-82
2023/08/12 01:52:37;;;;;;;4.15;2.40;;;;;;;-145.69;67.25;51759.22;5114484;28;20668;-82
2023/08/12 01:55:05;;;;;;;5.93;2.88;;;;;;;-145.69;67.42;51771.09;5114757;28;20197;-81
2023/08/12 01:57:31;;;;;;;3.47;2.72;;;;;;;-145.69;67.66;51777.03;5114520;28;20197;-83
2023/08/12 01:59:59;;;;;;;4.57;3.00;;;;;;;-145.69;67.49;51743.38;5114698;28;20319;-83
2023/08/12 02:02:26;;;;;;;3.15;2.53;;;;;;;-145.69;67.48;51755.25;5113843;28;20201;-82
2023/08/12 02:04:52;;;;;;;2.85;2.22;;;;;;;-145.69;67.82;51783.00;5114496;28;20201;-81
2023/08/12 02:07:19;;;;;;;3.78;2.55;;;;;;;-145.69;67.82;51759.22;5114233;28;20194;-82
2023/08/12 02:09:45;;;;;;;3.80;2.90;;;;;;;-145.69;67.84;51794.88;5114647;28;20224;-82
2023/08/12 02:12:12;;;;;;;6.20;3.10;;;;;;;-145.69;68.17;51751.31;5113928;28;20193;-82
2023/08/12 02:14:38;;;;;;;4.32;2.85;;;;;;;-145.69;68.21;51763.19;5113921;28;20233;-82
2023/08/12 02:17:06;;;;;;;4.85;2.80;;;;;;;-145.69;67.67;51763.19;5113877;28;20208;-82
2023/08/12 02:19:33;;;;;;;4.80;2.80;;;;;;;-145.69;67.69;51763.19;5114447;28;20201;-83
2023/08/12 02:22:00;;;;;;;3.90;2.67;;;;;;;-145.69;67.56;51767.16;5114133;28;20705;-83
2023/08/12 02:24:26;;;;;;;2.70;2.22;;;;;;;-145.69;67.31;51743.38;5114329;28;20552;-83
2023/08/12 02:26:53;;;;;;;3.50;2.85;;;;;;;-145.69;66.71;51751.31;5114005;28;20232;-82
2023/08/12 02:29:19;;;;;;;4.20;2.40;;;;;;;-145.69;66.75;51747.34;5096432;28;20296;-82
2023/08/12 02:31:46;;;;;;;7.30;2.67;;;;;;;-145.69;66.59;51783.00;5113431;28;20193;-82
2023/08/12 02:34:17;;;;;;;6.63;2.60;;;;;;;-145.69;66.38;51747.34;5114224;28;20306;-82
2023/08/12 02:36:43;;;;;;;4.15;2.72;;;;;;;-145.69;66.48;51751.31;5113327;28;20197;-82
2023/08/12 02:39:10;;;;;;;3.47;2.28;;;;;;;-145.69;67.08;51757.25;5113892;28;20200;-82
2023/08/12 02:41:36;;;;;;;8.32;2.75;;;;;;;-145.69;66.60;51790.91;5113340;28;20198;-83
2023/08/12 02:44:03;;;;;;;3.80;2.53;;;;;;;-145.69;65.86;51749.31;5113707;28;20212;-83
2023/08/12 02:46:29;;;;;;;4.68;2.70;;;;;;;-145.69;65.78;51779.03;5113564;28;20229;-82
2023/08/12 02:48:56;;;;;;;4.38;2.40;;;;;;;-145.69;65.12;51771.09;5113295;28;20197;-82
2023/08/12 02:51:24;;;;;;;3.97;2.30;;;;;;;-145.69;65.27;51783.00;5113677;28;20200;-83
2023/08/12 02:53:50;;;;;;;3.78;2.65;;;;;;;-145.69;65.19;51775.06;5113627;28;20194;-81
2023/08/12 02:56:17;;;;;;;4.85;2.53;;;;;;;-145.69;65.13;51786.94;5113050;28;20197;-82
2023/08/12 02:58:43;;;;;;;5.28;2.58;;;;;;;-145.69;65.41;51761.22;5113326;28;20201;-82
2023/08/12 03:01:10;;;;;;;3.22;2.50;;;;;;;-145.69;65.93;51775.06;5113259;28;20209;-83
2023/08/12 03:03:36;;;;;;;4.03;2.40;;;;;;;-145.69;66.32;51788.94;5113292;28;20205;-83
2023/08/12 03:06:03;;;;;;;4.40;2.53;;;;;;;-145.69;65.72;51771.09;5113236;28;20225;-83
2023/08/12 03:08:31;;;;;;;5.53;2.22;;;;;;;-145.69;65.97;51761.22;5110469;28;20206;-83
2023/08/12 03:11:00;;;;;;;5.10;2.42;;;;;;;-145.69;66.23;51777.03;5093066;28;20202;-83
2023/08/12 03:13:27;;;;;;;3.50;2.53;;;;;;;-145.69;66.18;51777.03;5093078;28;20317;-83
2023/08/12 03:15:54;;;;;;;5.03;2.70;;;;;;;-145.69;65.89;51777.03;5112607;27;20288;-82
2023/08/12 03:18:21;;;;;;;5.65;2.70;;;;;;;-145.69;65.27;51775.06;5113158;28;20226;-83
2023/08/12 03:20:47;;;;;;;5.38;2.60;;;;;;;-145.69;64.99;51802.78;5113268;28;20203;-83
2023/08/12 03:23:14;;;;;;;3.88;2.67;;;;;;;-145.69;65.38;51775.06;5109706;28;20284;-82
2023/08/12 03:25:42;;;;;;;3.63;2.55;;;;;;;-145.69;64.78;51739.44;5113108;28;20213;-82
2023/08/12 03:28:08;;;;;;;4.60;2.92;;;;;;;-145.69;64.59;51775.06;5113402;28;20193;-82
2023/08/12 03:30:35;;;;;;;2.03;1.83;;;;;;;-145.69;64.48;51779.03;5113396;28;20197;-83
2023/08/12 03:33:02;;;;;;;3.05;2.60;;;;;;;-145.69;64.77;51731.50;5112352;28;20198;-84
2023/08/12 03:35:29;;;;;;;4.07;2.58;;;;;;;-145.69;64.69;51769.13;5112991;28;20209;-84
2023/08/12 03:37:55;;;;;;;3.97;2.08;;;;;;;-145.69;64.62;51794.88;5112761;28;20201;-83
2023/08/12 03:40:22;;;;;;;3.50;2.50;;;;;;;-145.69;64.41;51749.31;5112943;28;20220;-83
2023/08/12 03:42:49;;;;;;;5.18;2.30;;;;;;;-145.69;64.64;51786.94;5112766;28;20197;-83
2023/08/12 03:45:16;;;;;;;4.93;2.60;;;;;;;-145.69;64.89;51757.25;5112999;28;20200;-83
2023/08/12 03:47:42;;;;;;;5.53;2.17;;;;;;;-145.69;65.02;51771.09;5114945;28;20221;-83
2023/08/12 03:50:09;;;;;;;2.75;2.20;;;;;;;-145.69;64.36;51771.09;5116743;28;20208;-83
2023/08/12 03:52:36;;;;;;;3.03;2.35;;;;;;;-145.69;63.94;51788.94;5117298;28;20244;-83
2023/08/12 03:55:02;;;;;;;4.65;2.13;;;;;;;-145.69;63.36;51771.09;5117342;28;20193;-83
2023/08/12 03:57:29;;;;;;;3.53;2.30;;;;;;;-145.69;62.95;51755.25;5117206;28;20209;-82
2023/08/12 03:59:57;;;;;;;3.00;2.20;;;;;;;-145.69;62.53;51771.09;5117034;28;20664;-83
2023/08/12 04:02:23;;;;;;;4.15;2.35;;;;;;;-145.69;63.11;51767.16;5116424;28;20548;-82
2023/08/12 04:04:50;;;;;;;4.10;2.25;;;;;;;-145.69;63.63;51763.19;5116291;28;20201;-83
2023/08/12 04:07:16;;;;;;;3.63;2.22;;;;;;;-145.69;63.84;51771.09;5117006;28;20229;-83
2023/08/12 04:09:43;;;;;;;5.28;2.22;;;;;;;-145.69;63.89;51753.28;5116575;28;20652;-83
2023/08/12 04:12:09;;;;;;;6.38;2.20;;;;;;;-145.69;64.04;51767.16;5116067;28;20640;-83
2023/08/12 04:14:36;;;;;;;3.40;2.33;;;;;;;-145.69;64.04;51771.09;5096256;28;20735;-83
2023/08/12 04:17:04;;;;;;;4.32;2.20;;;;;;;-145.69;63.91;51775.06;5096356;28;20205;-81
2023/08/12 04:19:30;;;;;;;3.78;2.42;;;;;;;-145.69;63.56;51765.16;5095993;28;20221;-82
2023/08/12 04:21:57;;;;;;;4.97;2.67;;;;;;;-145.69;63.35;51763.19;5096406;28;20204;-83
2023/08/12 04:24:23;;;;;;;4.40;2.35;;;;;;;-145.69;62.47;51751.31;5102431;28;20200;-84
2023/08/12 04:26:50;;;;;;;4.03;2.72;;;;;;;-145.69;61.72;51759.22;5116153;28;20227;-83
2023/08/12 04:29:16;;;;;;;3.35;2.20;;;;;;;-145.69;61.69;51763.19;5116537;28;20220;-84
2023/08/12 04:31:43;;;;;;;3.60;2.42;;;;;;;-145.69;61.44;51779.03;5116566;28;20202;-83
2023/08/12 04:34:11;;;;;;;3.90;2.10;;;;;;;-145.69;61.37;51731.50;5116438;28;20207;-83
2023/08/12 04:36:37;;;;;;;3.75;2.10;;;;;;;-145.69;61.51;51745.38;5116061;28;20201;-83
2023/08/12 04:39:04;;;;;;;3.90;2.50;;;;;;;-145.69;61.49;51763.19;5116129;28;20197;-83
2023/08/12 04:41:30;;;;;;;3.47;2.10;;;;;;;-145.69;60.90;51759.22;5116093;28;20207;-83
2023/08/12 04:44:00;;;;;;;3.38;1.92;;;;;;;-145.69;61.09;51786.94;5116184;28;20202;-83
2023/08/12 04:46:26;;;;;;;3.05;2.33;;;;;;;-145.69;61.08;51773.09;5116018;28;20221;-83
2023/08/12 04:48:53;;;;;;;7.07;2.40;;;;;;;-145.69;61.24;51755.25;5115589;28;20193;-83
2023/08/12 04:51:20;;;;;;;3.63;2.30;;;;;;;-145.69;61.30;51759.22;5115982;28;20197;-83
2023/08/12 04:53:47;;;;;;;3.17;2.20;;;;;;;-145.69;61.06;51759.22;5116131;28;20667;-83
2023/08/12 04:56:13;;;;;;;3.67;2.53;;;;;;;-145.69;61.79;51757.25;5115975;28;20197;-83
2023/08/12 04:58:40;;;;;;;7.35;2.58;;;;;;;-145.69;61.35;51794.88;5114986;28;20217;-83
2023/08/12 05:01:06;;;;;;;2.85;2.10;;;;;;;-145.69;61.60;51773.09;5115487;28;20194;-82
2023/08/12 05:03:33;;;;;;;3.70;2.50;;;;;;;-145.69;61.52;51794.88;5111814;28;20201;-83
2023/08/12 05:05:59;;;;;;;3.47;2.33;;;;;;;-145.69;61.29;51794.88;5115656;28;20201;-83
2023/08/12 05:08:27;;;;;;;2.72;2.20;;;;;;;-145.69;61.04;51777.03;5115558;28;20572;-83
2023/08/12 05:10:56;;;;;;;5.05;2.50;;;;;;;-145.69;60.53;51771.09;5115488;28;20668;-84
2023/08/12 05:13:24;;;;;;;4.60;2.35;;;;;;;-145.69;60.45;51775.06;5115375;28;20221;-83
2023/08/12 05:15:50;;;;;;;4.05;2.50;;;;;;;-145.69;60.64;51771.09;5116457;27;20193;-83
2023/08/12 05:18:17;;;;;;;5.03;2.40;;;;;;;-145.69;60.44;51777.03;5135026;27;20200;-82
2023/08/12 05:20:44;;;;;;;3.15;2.10;;;;;;;-145.69;60.59;51735.47;5135948;27;20232;-82
2023/08/12 05:23:10;;;;;;;3.28;2.25;;;;;;;-145.69;59.61;51751.31;5112856;27;20197;-83
2023/08/12 05:25:40;;;;;;;8.00;2.28;;;;;;;-145.69;59.31;51741.41;5115326;28;20212;-83
2023/08/12 05:28:07;;;;;;;7.03;2.20;;;;;;;-145.69;59.69;51731.50;5114849;28;20235;-83
2023/08/12 05:30:33;;;;;;;3.10;2.45;;;;;;;-145.69;59.01;51737.44;5115653;28;20220;-83
2023/08/12 05:33:00;;;;;;;3.80;2.13;;;;;;;-145.69;58.41;51755.25;5114634;28;20189;-83
2023/08/12 05:35:27;;;;;;;3.45;1.80;;;;;;;-145.69;57.91;51733.50;5115063;28;20672;-83
2023/08/12 05:37:53;;;;;;;2.42;1.90;;;;;;;-145.69;58.51;51759.22;5115079;28;20197;-83
2023/08/12 05:40:20;;;;;;;3.03;2.28;;;;;;;-145.69;58.70;51763.19;5114860;28;20664;-83
2023/08/12 05:42:48;;;;;;;5.65;2.60;;;;;;;-145.69;57.71;51719.63;5114767;28;20204;-83
2023/08/12 05:45:14;;;;;;;5.10;2.05;;;;;;;-145.69;58.04;51725.56;5115051;28;20197;-83
2023/08/12 05:47:41;;;;;;;5.20;2.50;;;;;;;-145.69;58.31;51749.31;5114760;28;20236;-84
2023/08/12 05:50:08;;;;;;;3.78;2.30;;;;;;;-145.69;57.27;51713.69;5114764;28;20204;-82
2023/08/12 05:52:34;;;;;;;3.95;2.38;;;;;;;-145.69;55.61;51763.19;5114923;28;20208;-83
2023/08/12 05:55:01;;;;;;;3.17;2.28;;;;;;;-145.69;55.70;51723.59;5114655;28;20197;-83
2023/08/12 05:57:27;;;;;;;2.83;2.03;;;;;;;-145.69;55.92;51729.53;5114792;28;20201;-83
2023/08/12 05:59:55;;;;;;;2.90;2.10;;;;;;;-145.69;54.79;51699.81;5114552;28;20212;-80
2023/08/12 06:02:22;;;;;;;4.07;2.03;;;;;;;-145.69;54.41;51711.72;5114330;28;20668;-81
2023/08/12 06:04:48;;;;;;;3.60;2.20;;;;;;;-145.69;54.46;51715.66;5113915;28;20200;-81
2023/08/12 06:07:15;;;;;;;4.32;2.35;;;;;;;-145.69;55.08;51719.63;5114036;28;20691;-81
2023/08/12 06:09:41;;;;;;;2.90;2.10;;;;;;;-145.69;55.40;51741.41;5114392;28;20205;-81
2023/08/12 06:12:08;;;;;;;6.18;2.45;;;;;;;-145.69;55.72;51743.38;5114478;28;20212;-81
2023/08/12 06:14:37;;;;;;;6.25;2.13;;;;;;;-145.69;55.62;51695.88;5114264;28;20229;-81
2023/08/12 06:17:05;;;;;;;4.65;2.00;;;;;;;-145.69;56.29;51721.59;5113941;28;20546;-81
2023/08/12 06:19:32;;;;;;;2.50;2.03;;;;;;;-145.69;56.54;51699.81;5114648;28;20203;-82
2023/08/12 06:21:58;;;;;;;4.68;2.15;;;;;;;-145.69;57.26;51743.38;5114306;28;20208;-83
2023/08/12 06:24:24;;;;;;;4.93;2.38;;;;;;;-145.69;58.46;51709.72;5114124;28;20197;-83
2023/08/12 06:26:51;;;;;;;3.83;2.03;;;;;;;-145.69;60.19;51723.59;5114109;28;20221;-81
2023/08/12 06:29:18;;;;;;;2.72;1.90;;;;;;;-145.69;60.38;51723.59;5114411;28;20202;-80
2023/08/12 06:31:44;;;;;;;4.90;2.10;;;;;;;-145.69;61.19;51707.75;5113994;28;20217;-81
2023/08/12 06:34:12;;;;;;;5.13;1.90;;;;;;;-145.69;60.61;51725.56;5113454;28;20201;-80
2023/08/12 06:36:38;;;;;;;2.28;1.80;;;;;;;-145.69;60.76;51731.50;5102159;28;20204;-80
2023/08/12 06:39:05;;;;;;;5.43;2.08;;;;;;;-145.69;60.34;51699.81;5113657;28;20279;-80
2023/08/12 06:41:32;;;;;;;2.55;2.17;;;;;;;-145.69;60.74;51727.53;5114109;28;20201;-81
2023/08/12 06:43:58;;;;;;;4.25;1.98;;;;;;;-145.69;60.61;51731.50;5113992;28;20197;-80
2023/08/12 06:46:25;;;;;;;3.67;1.90;;;;;;;-145.69;60.61;51743.38;5113253;28;20189;-83
2023/08/12 06:48:51;;;;;;;4.32;1.98;;;;;;;-145.69;59.82;51719.63;5114122;28;20703;-83
2023/08/12 06:51:19;;;;;;;3.28;2.15;;;;;;;-145.69;61.14;51707.75;5113646;28;20647;-82
2023/08/12 06:53:45;;;;;;;3.90;1.83;;;;;;;-145.69;61.94;51703.78;5113991;28;20559;-81
2023/08/12 06:56:12;;;;;;;3.35;2.17;;;;;;;-145.69;62.08;51743.38;5113472;28;20205;-80
2023/08/12 06:58:38;;;;;;;3.33;2.05;;;;;;;-145.69;62.41;51723.59;5113584;28;20194;-81
2023/08/12 07:01:05;;;;;;;2.33;1.80;;;;;;;-145.69;63.87;51723.59;5112988;28;20194;-82
2023/08/12 07:03:32;;;;;;;3.83;2.38;;;;;;;-145.69;63.21;51703.78;5112309;28;20648;-83
2023/08/12 07:05:59;;;;;;;3.58;1.92;;;;;;;-145.69;62.53;51725.56;5113741;28;20295;-83
2023/08/12 07:08:27;;;;;;;3.13;2.20;;;;;;;-145.69;61.44;51711.72;5111552;28;20217;-82
2023/08/12 07:10:53;;;;;;;3.22;2.00;;;;;;;-145.69;60.46;51731.50;5116652;27;20206;-83
2023/08/12 07:13:23;;;;;;;3.15;1.77;;;;;;;-145.69;59.64;51697.84;5104215;28;20241;-83
2023/08/12 07:15:49;;;;;;;2.95;2.10;;;;;;;-145.69;59.24;51680.03;5092670;28;20247;-83
2023/08/12 07:18:16;;;;;;;2.72;1.80;;;;;;;-145.69;58.27;51683.97;5092935;28;20198;-83
2023/08/12 07:20:43;;;;;;;2.55;1.88;;;;;;;-145.69;58.13;51703.78;5093001;28;20209;-81
2023/08/12 07:23:09;;;;;;;7.50;2.15;;;;;;;-145.69;57.60;51701.81;5092659;28;20201;-81
2023/08/12 07:25:37;;;;;;;2.70;2.00;;;;;;;-145.69;57.55;51707.75;5113045;28;20205;-81
2023/08/12 07:28:04;;;;;;;2.83;1.90;;;;;;;-145.69;57.68;51709.72;5113028;28;20221;-81
2023/08/12 07:30:31;;;;;;;3.38;2.00;;;;;;;-145.69;57.73;51685.97;5113205;28;20559;-80
2023/08/12 07:32:57;;;;;;;3.70;2.13;;;;;;;-145.69;57.25;51719.63;5112449;28;20201;-81
2023/08/12 07:35:24;;;;;;;2.70;1.90;;;;;;;-145.69;55.82;51680.03;5095046;28;20201;-81
2023/08/12 07:37:50;;;;;;;6.97;2.22;;;;;;;-145.69;52.73;51668.16;5112935;28;20202;-81
2023/08/12 07:40:17;;;;;;;2.25;1.67;;;;;;;-145.69;50.42;51672.09;5113223;28;20193;-81
2023/08/12 07:42:45;;;;;;;2.55;1.85;;;;;;;-145.69;49.72;51672.09;5112797;28;20201;-81
2023/08/12 07:45:11;;;;;;;2.58;1.75;;;;;;;-145.69;47.76;51656.25;5112806;28;20202;-82
2023/08/12 07:47:38;;;;;;;2.90;1.77;;;;;;;-145.69;45.50;51636.47;5113093;28;20234;-81
2023/08/12 07:50:05;;;;;;;2.50;1.50;;;;;;;-145.69;43.10;51626.56;5113225;28;20201;-82
2023/08/12 07:52:32;;;;;;;2.67;1.70;;;;;;;-145.69;41.88;51646.38;5113122;28;20284;-82
2023/08/12 07:54:58;;;;;;;2.72;1.58;;;;;;;-145.69;40.24;51632.50;5112639;28;20210;-81
2023/08/12 07:57:25;;;;;;;2.28;1.60;;;;;;;-145.69;38.80;51626.56;5112646;28;20193;-81
2023/08/12 07:59:53;;;;;;;3.63;1.80;;;;;;;-145.69;39.51;51618.66;5109054;28;20675;-83
2023/08/12 08:02:19;;;;;;;4.38;1.55;;;;;;;-145.69;38.41;51606.75;5113164;28;20544;-84
2023/08/12 08:04:48;;;;;;;2.47;1.80;;;;;;;-145.69;38.17;51604.78;5096223;28;20289;-84
2023/08/12 08:07:15;;;;;;;2.33;1.67;;;;;;;-145.69;38.09;51620.63;5101623;28;20225;-83
2023/08/12 08:09:42;;;;;;;2.47;1.58;;;;;;;-145.69;38.28;51592.91;5113187;28;20202;-83
2023/08/12 08:12:08;;;;;;;2.85;1.80;;;;;;;-145.69;38.88;51604.78;5111504;28;20659;-84
2023/08/12 08:14:35;;;;;;;1.73;1.40;;;;;;;-145.69;37.95;51610.72;5112732;28;20230;-84
2023/08/12 08:17:03;;;;;;;3.15;1.85;;;;;;;-145.69;38.50;51583.00;5112365;28;20201;-81
2023/08/12 08:19:30;;;;;;;2.47;1.60;;;;;;;-145.69;37.18;51583.00;5112339;28;20548;-80
2023/08/12 08:21:57;;;;;;;3.25;1.70;;;;;;;-145.69;37.35;51596.88;5112487;28;20201;-82
2023/08/12 08:24:24;;;;;;;3.20;1.65;;;;;;;-145.69;37.70;51604.78;5094595;28;20197;-83
2023/08/12 08:26:50;;;;;;;2.92;2.10;;;;;;;-145.69;38.24;51596.88;5112660;28;20205;-83
2023/08/12 08:29:17;;;;;;;6.28;1.50;;;;;;;-145.69;38.03;51600.81;5112695;28;20298;-82
2023/08/12 08:31:43;;;;;;;2.90;1.70;;;;;;;-145.69;38.06;51618.66;5112918;28;20896;-83
2023/08/12 08:34:11;;;;;;;2.80;1.85;;;;;;;-145.69;38.16;51600.81;5095321;28;20257;-83
2023/08/12 08:36:38;;;;;;;2.30;1.77;;;;;;;-145.69;37.77;51581.03;5116146;28;20559;-84
2023/08/12 08:39:05;;;;;;;2.65;2.10;;;;;;;-145.69;37.77;51581.03;5116081;28;20559;-83
2023/08/12 08:41:32;;;;;;;5.57;2.05;;;;;;;-145.69;37.93;51596.88;5116592;28;20719;-82
2023/08/12 08:44:03;;;;;;;2.33;1.90;;;;;;;-145.69;37.84;51596.88;5116095;28;20209;-82
2023/08/12 08:46:30;;;;;;;4.15;1.80;;;;;;;-145.69;37.76;51596.88;5116435;28;20563;-83
2023/08/12 08:48:59;;;;;;;4.15;1.95;;;;;;;-145.69;38.13;51581.03;5115920;28;20257;-82
2023/08/12 08:51:30;;;;;;;2.67;1.80;;;;;;;-145.69;37.17;51569.16;5117329;28;20196;-85
2023/08/12 08:53:57;;;;;;;2.78;1.92;;;;;;;-145.69;37.09;51553.31;5115960;28;20209;-81
2023/08/12 08:56:24;;;;;;;5.25;2.13;;;;;;;-145.69;36.32;51561.22;5116428;28;20205;-83
2023/08/12 08:58:51;;;;;;;5.13;3.08;;;;;;;-145.69;36.78;51592.91;5118892;28;20202;-82
2023/08/12 09:01:22;;;;;;;3.45;2.10;;;;;;;-145.69;35.13;51573.09;5118791;28;20196;-84
2023/08/12 09:03:52;;;;;;;3.58;1.60;;;;;;;-145.69;35.26;51571.13;5119067;27;20209;-83
2023/08/12 09:06:19;;;;;;;3.45;1.80;;;;;;;-145.69;35.52;51565.19;5118808;27;20644;-84
2023/08/12 09:08:49;;;;;;;4.72;1.88;;;;;;;-145.69;34.25;51545.38;5133430;27;20228;-80
2023/08/12 09:11:17;;;;;;;3.08;1.92;;;;;;;-145.69;34.78;51553.31;5113484;28;20200;-82
2023/08/12 09:13:44;;;;;;;4.00;2.08;;;;;;;-145.69;34.42;51533.50;5106702;28;20245;-84
2023/08/12 09:16:11;;;;;;;2.55;1.90;;;;;;;-145.69;34.65;51563.22;5095307;28;20538;-84
2023/08/12 09:18:38;;;;;;;3.25;2.10;;;;;;;-145.69;34.83;51549.34;5094939;28;20224;-83
2023/08/12 09:21:05;;;;;;;4.15;1.88;;;;;;;-145.69;34.25;51543.41;5107959;28;20220;-84
2023/08/12 09:23:36;;;;;;;2.88;2.08;;;;;;;-145.69;34.11;51549.34;5114560;28;20305;-83
2023/08/12 09:26:04;;;;;;;4.13;1.90;;;;;;;-145.69;34.46;51561.22;5114843;28;20201;-83
2023/08/12 09:28:30;;;;;;;3.00;1.85;;;;;;;-145.69;34.22;51561.22;5096811;28;20225;-83
2023/08/12 09:30:57;;;;;;;2.78;1.63;;;;;;;-145.69;34.49;51531.53;5080094;28;20205;-84
2023/08/12 09:33:26;;;;;;;2.83;1.73;;;;;;;-145.69;34.18;51531.53;5115075;28;20224;-84
2023/08/12 09:35:53;;;;;;;3.33;2.00;;;;;;;-145.69;33.28;51541.44;5115419;28;20197;-83
2023/08/12 09:38:19;;;;;;;2.60;1.80;;;;;;;-145.69;34.00;51577.06;5115080;28;20207;-83
2023/08/12 09:40:47;;;;;;;2.70;1.90;;;;;;;-145.69;33.89;51561.22;5115326;28;20563;-82
2023/08/12 09:43:16;;;;;;;2.17;1.70;;;;;;;-145.69;35.07;51553.31;5114976;28;20204;-83
2023/08/12 09:45:45;;;;;;;2.38;1.80;;;;;;;-145.69;34.76;51567.16;5114653;28;20189;-83
2023/08/12 09:48:12;;;;;;;3.03;1.90;;;;;;;-145.69;34.67;51553.31;5114875;28;20240;-83
2023/08/12 09:50:38;;;;;;;5.22;1.83;;;;;;;-145.69;35.03;51563.22;5115006;28;20648;-83
2023/08/12 09:53:05;;;;;;;2.88;1.88;;;;;;;-145.69;35.36;51561.22;5115576;28;20630;-83
2023/08/12 09:55:36;;;;;;;2.53;1.80;;;;;;;-145.69;34.57;51543.41;5115380;28;20225;-84
2023/08/12 09:58:07;;;;;;;4.63;2.00;;;;;;;-145.69;34.12;51519.66;5114591;28;20293;-82
2023/08/12 10:00:35;;;;;;;2.58;1.50;;;;;;;-145.69;34.38;51535.50;5114885;28;20197;-84
2023/08/12 10:03:03;;;;;;;3.85;1.83;;;;;;;-145.69;33.98;51533.50;5114916;28;20198;-83
2023/08/12 10:05:33;;;;;;;6.50;1.73;;;;;;;-145.69;33.18;51565.19;5115094;28;20644;-84
2023/08/12 10:08:02;;;;;;;4.20;2.00;;;;;;;-145.69;33.33;51565.19;5114937;28;20580;-81
2023/08/12 10:10:31;;;;;;;3.15;2.08;;;;;;;-145.69;33.88;51575.09;5114090;28;20232;-81
2023/08/12 10:12:59;;;;;;;3.88;1.90;;;;;;;-145.69;34.29;51577.06;5112830;28;20193;-83
2023/08/12 10:15:34;;;;;;;2.50;1.58;;;;;;;-145.69;34.57;51600.81;5113896;28;20729;-82
2023/08/12 10:18:15;;;;;;;5.03;1.70;;;;;;;-145.69;34.03;51588.94;5114433;28;20291;-81
2023/08/12 10:20:44;;;;;;;5.28;1.98;;;;;;;-145.69;35.41;51561.22;5114126;28;20200;-81
2023/08/12 10:23:18;;;;;;;4.47;1.73;;;;;;;-145.69;34.52;51600.81;5114365;28;20228;-82
2023/08/12 10:25:44;;;;;;;2.60;1.63;;;;;;;-145.69;34.23;51581.03;5114509;28;20297;-83
2023/08/12 10:28:13;;;;;;;5.47;1.95;;;;;;;-145.69;34.85;51616.66;5113958;28;20225;-82
2023/08/12 10:30:43;;;;;;;3.67;1.73;;;;;;;-145.69;35.17;51600.81;5114089;28;20292;-81
2023/08/12 10:33:16;;;;;;;2.90;1.40;;;;;;;-145.69;34.16;51577.06;5114190;28;20432;-81
2023/08/12 10:35:49;;;;;;;4.68;1.55;;;;;;;-145.69;33.79;51598.84;5113868;28;20205;-84
2023/08/12 10:38:25;;;;;;;3.97;1.70;;;;;;;-145.69;33.10;51584.97;5113926;28;20285;-82
2023/08/12 10:40:51;;;;;;;5.10;1.50;;;;;;;-145.69;33.50;51575.09;5114322;28;20197;-81
2023/08/12 10:46:04;;;;;;;2.53;1.40;;;;;;;-145.69;32.10;51577.06;5113141;28;20197;-82
2023/08/12 10:48:36;;;;;;;2.67;1.55;;;;;;;-145.69;32.40;51573.09;5113341;28;20688;-80
2023/08/12 10:51:08;;;;;;;3.30;1.52;;;;;;;-145.69;33.11;51608.75;5113936;28;20205;-83
2023/08/12 10:53:48;;;;;;;4.15;1.90;;;;;;;-145.69;33.10;51590.94;5113967;28;20205;-81
2023/08/12 10:56:15;;;;;;;4.25;1.60;;;;;;;-145.69;33.95;51575.09;5113377;28;20211;-80
2023/08/12 10:58:47;;;;;;;3.03;1.85;;;;;;;-145.69;34.38;51588.94;5113459;28;20197;-81
2023/08/12 11:01:18;;;;;;;3.13;1.80;;;;;;;-145.69;35.86;51583.00;5113851;28;20212;-83
2023/08/12 11:03:46;;;;;;;3.13;1.50;;;;;;;-145.69;35.75;51610.72;5103569;28;20254;-82
2023/08/12 11:06:13;;;;;;;1.90;1.52;;;;;;;-145.69;35.65;51624.59;5112648;28;20202;-83
2023/08/12 11:08:47;;;;;;;2.58;1.33;;;;;;;-145.69;34.62;51620.63;5113327;28;20221;-81
2023/08/12 11:11:21;;;;;;;3.03;1.70;;;;;;;-145.69;34.04;51600.81;5113540;28;20206;-81
2023/08/12 11:13:48;;;;;;;5.38;1.70;;;;;;;-145.69;34.62;51628.53;5128832;27;20232;-79
2023/08/12 11:16:14;;;;;;;3.10;1.50;;;;;;;-145.69;35.83;51632.50;5133873;27;20619;-79
2023/08/12 11:18:42;;;;;;;2.38;1.50;;;;;;;-145.69;36.08;51600.81;5132441;27;20201;-80
2023/08/12 11:21:10;;;;;;;3.70;1.75;;;;;;;-145.69;36.39;51592.91;5113478;28;20204;-81